Terminal Aerodrome Forecast
Issued by NWS Wilmington, OH

Current Version | Previous Version | Text Only | Print | Product List | Glossary Off
Versions: 1 2 3 4 5 6 7 8 9 10 11 12 13 14 15 16 17 18 19 20 21

000
FTUS41 KILN 251100
TAFDAY
TAF
KDAY 251130Z 2512/2612 VRB04KT P6SM SCT250
     FM251500 22007KT P6SM SCT050
     FM260000 19005KT P6SM SCT150
     FM260600 20007KT P6SM BKN100=

USA.gov is the U.S. government's official web portal to all federal, state and local government web resources and services.